sensor_id;sensor_type;location;lat;lon;timestamp;pressure;altitude;pressure_sealevel;temperature;humidity
7052;BME280;3567;52.444;13.556;2023-07-08T00:02:10;101776.44;;;14.77;93.74
7052;BME280;3567;52.444;13.556;2023-07-08T00:04:36;101773.97;;;14.76;94.69
7052;BME280;3567;52.444;13.556;2023-07-08T00:07:02;101776.06;;;14.74;94.51
7052;BME280;3567;52.444;13.556;2023-07-08T00:09:27;101772.16;;;14.70;94.43
7052;BME280;3567;52.444;13.556;2023-07-08T00:11:52;101773.09;;;14.63;94.81
7052;BME280;3567;52.444;13.556;2023-07-08T00:14:18;101773.19;;;14.57;94.51
7052;BME280;3567;52.444;13.556;2023-07-08T00:16:43;101764.75;;;14.53;94.70
7052;BME280;3567;52.444;13.556;2023-07-08T00:19:10;101766.28;;;14.49;95.03
7052;BME280;3567;52.444;13.556;2023-07-08T00:21:35;101767.75;;;14.45;94.83
7052;BME280;3567;52.444;13.556;2023-07-08T00:24:01;101763.84;;;14.41;95.14
7052;BME280;3567;52.444;13.556;2023-07-08T00:26:28;101763.28;;;14.39;95.35
7052;BME280;3567;52.444;13.556;2023-07-08T00:28:55;101764.28;;;14.38;95.74
7052;BME280;3567;52.444;13.556;2023-07-08T00:31:23;101755.38;;;14.37;95.97
7052;BME280;3567;52.444;13.556;2023-07-08T00:33:55;101762.91;;;14.35;96.03
7052;BME280;3567;52.444;13.556;2023-07-08T00:36:22;101763.56;;;14.31;96.19
7052;BME280;3567;52.444;13.556;2023-07-08T00:38:48;101759.47;;;14.28;96.72
7052;BME280;3567;52.444;13.556;2023-07-08T00:41:28;101764.50;;;14.25;96.64
7052;BME280;3567;52.444;13.556;2023-07-08T00:43:57;101763.28;;;14.21;96.54
7052;BME280;3567;52.444;13.556;2023-07-08T00:48:50;101763.16;;;14.15;97.22
7052;BME280;3567;52.444;13.556;2023-07-08T00:51:18;101770.88;;;14.12;97.42
7052;BME280;3567;52.444;13.556;2023-07-08T00:53:44;101767.59;;;14.10;98.05
7052;BME280;3567;52.444;13.556;2023-07-08T00:59:04;101775.50;;;14.05;98.46
7052;BME280;3567;52.444;13.556;2023-07-08T01:01:32;101784.66;;;14.04;98.16
7052;BME280;3567;52.444;13.556;2023-07-08T01:04:05;101772.47;;;14.01;98.69
7052;BME280;3567;52.444;13.556;2023-07-08T01:06:34;101772.31;;;13.96;98.90
7052;BME280;3567;52.444;13.556;2023-07-08T01:09:06;101769.00;;;13.94;98.91
7052;BME280;3567;52.444;13.556;2023-07-08T01:11:32;101776.28;;;13.94;99.31
7052;BME280;3567;52.444;13.556;2023-07-08T01:14:00;101764.31;;;13.89;99.27
7052;BME280;3567;52.444;13.556;2023-07-08T01:16:27;101769.34;;;13.86;99.71
7052;BME280;3567;52.444;13.556;2023-07-08T01:18:52;101764.38;;;13.83;99.33
7052;BME280;3567;52.444;13.556;2023-07-08T01:21:39;101762.38;;;13.78;99.94
7052;BME280;3567;52.444;13.556;2023-07-08T01:24:08;101755.81;;;13.74;100.00
7052;BME280;3567;52.444;13.556;2023-07-08T01:26:38;101758.09;;;13.71;100.00
7052;BME280;3567;52.444;13.556;2023-07-08T01:29:04;101751.28;;;13.68;99.99
7052;BME280;3567;52.444;13.556;2023-07-08T01:31:31;101744.50;;;13.66;100.00
7052;BME280;3567;52.444;13.556;2023-07-08T01:33:56;101751.53;;;13.67;100.00
7052;BME280;3567;52.444;13.556;2023-07-08T01:36:21;101750.47;;;13.68;99.94
7052;BME280;3567;52.444;13.556;2023-07-08T01:38:48;101740.66;;;13.73;99.86
7052;BME280;3567;52.444;13.556;2023-07-08T01:41:16;101745.22;;;13.73;100.00
7052;BME280;3567;52.444;13.556;2023-07-08T01:43:42;101747.34;;;13.71;99.94
7052;BME280;3567;52.444;13.556;2023-07-08T01:46:15;101734.78;;;13.65;99.76
7052;BME280;3567;52.444;13.556;2023-07-08T01:48:47;101733.56;;;13.60;100.00
7052;BME280;3567;52.444;13.556;2023-07-08T01:51:13;101738.56;;;13.57;100.00
7052;BME280;3567;52.444;13.556;2023-07-08T01:53:41;101735.28;;;13.55;100.00
7052;BME280;3567;52.444;13.556;2023-07-08T01:56:08;101735.53;;;13.53;100.00
7052;BME280;3567;52.444;13.556;2023-07-08T01:58:34;101736.78;;;13.51;100.00
7052;BME280;3567;52.444;13.556;2023-07-08T02:00:59;101727.31;;;13.48;100.00
7052;BME280;3567;52.444;13.556;2023-07-08T02:03:26;101729.16;;;13.48;100.00
7052;BME280;3567;52.444;13.556;2023-07-08T02:05:51;101736.41;;;13.47;100.00
7052;BME280;3567;52.444;13.556;2023-07-08T02:08:18;101734.16;;;13.44;100.00
7052;BME280;3567;52.444;13.556;2023-07-08T02:10:48;101739.97;;;13.41;100.00
7052;BME280;3567;52.444;13.556;2023-07-08T02:13:13;101737.53;;;13.40;100.00
7052;BME280;3567;52.444;13.556;2023-07-08T02:15:39;101736.69;;;13.39;100.00
7052;BME280;3567;52.444;13.556;2023-07-08T02:18:04;101729.28;;;13.34;100.00
7052;BME280;3567;52.444;13.556;2023-07-08T02:20:30;101733.28;;;13.32;100.00
7052;BME280;3567;52.444;13.556;2023-07-08T02:22:55;101729.97;;;13.30;100.00
7052;BME280;3567;52.444;13.556;2023-07-08T02:25:20;101731.00;;;13.29;100.00
7052;BME280;3567;52.444;13.556;2023-07-08T02:27:46;101741.59;;;13.24;100.00
7052;BME280;3567;52.444;13.556;2023-07-08T02:30:11;101735.00;;;13.20;100.00
7052;BME280;3567;52.444;13.556;2023-07-08T02:32:37;101739.78;;;13.18;100.00
7052;BME280;3567;52.444;13.556;2023-07-08T02:35:08;101743.53;;;13.17;100.00
7052;BME280;3567;52.444;13.556;2023-07-08T02:37:34;101738.34;;;13.15;100.00
7052;BME280;3567;52.444;13.556;2023-07-08T02:40:00;101726.41;;;13.11;100.00
7052;BME280;3567;52.444;13.556;2023-07-08T02:42:25;101734.66;;;13.09;100.00
7052;BME280;3567;52.444;13.556;2023-07-08T02:44:51;101729.50;;;13.08;100.00
7052;BME280;3567;52.444;13.556;2023-07-08T02:47:16;101727.66;;;13.08;100.00
7052;BME280;3567;52.444;13.556;2023-07-08T02:49:42;101729.75;;;13.06;100.00
7052;BME280;3567;52.444;13.556;2023-07-08T02:52:07;101723.97;;;13.03;100.00
7052;BME280;3567;52.444;13.556;2023-07-08T02:54:33;101728.75;;;13.01;100.00
7052;BME280;3567;52.444;13.556;2023-07-08T02:56:58;101731.66;;;12.99;100.00
7052;BME280;3567;52.444;13.556;2023-07-08T02:59:23;101734.97;;;13.01;100.00
7052;BME280;3567;52.444;13.556;2023-07-08T03:01:49;101723.59;;;12.99;100.00
7052;BME280;3567;52.444;13.556;2023-07-08T03:04:15;101724.44;;;13.00;100.00
7052;BME280;3567;52.444;13.556;2023-07-08T03:06:44;101722.75;;;12.99;100.00
7052;BME280;3567;52.444;13.556;2023-07-08T03:09:11;101714.09;;;12.97;100.00
7052;BME280;3567;52.444;13.556;2023-07-08T03:11:38;101722.41;;;12.95;100.00
7052;BME280;3567;52.444;13.556;2023-07-08T03:14:04;101724.47;;;12.93;100.00
7052;BME280;3567;52.444;13.556;2023-07-08T03:16:30;101718.88;;;12.95;100.00
7052;BME280;3567;52.444;13.556;2023-07-08T03:18:59;101724.03;;;12.96;100.00
7052;BME280;3567;52.444;13.556;2023-07-08T03:21:24;101719.47;;;12.97;100.00
7052;BME280;3567;52.444;13.556;2023-07-08T03:23:51;101719.25;;;12.98;100.00
7052;BME280;3567;52.444;13.556;2023-07-08T03:26:20;101722.75;;;12.99;100.00
7052;BME280;3567;52.444;13.556;2023-07-08T03:28:46;101726.06;;;13.01;100.00
7052;BME280;3567;52.444;13.556;2023-07-08T03:31:12;101725.25;;;13.00;100.00
7052;BME280;3567;52.444;13.556;2023-07-08T03:33:37;101720.47;;;13.02;100.00
7052;BME280;3567;52.444;13.556;2023-07-08T03:36:05;101718.38;;;13.04;100.00
7052;BME280;3567;52.444;13.556;2023-07-08T03:38:35;101712.97;;;13.04;100.00
7052;BME280;3567;52.444;13.556;2023-07-08T03:41:00;101717.94;;;13.07;100.00
7052;BME280;3567;52.444;13.556;2023-07-08T03:43:25;101709.44;;;13.10;100.00
7052;BME280;3567;52.444;13.556;2023-07-08T03:45:51;101712.28;;;13.16;100.00
7052;BME280;3567;52.444;13.556;2023-07-08T03:48:17;101715.09;;;13.21;100.00
7052;BME280;3567;52.444;13.556;2023-07-08T03:50:42;101714.03;;;13.28;100.00
7052;BME280;3567;52.444;13.556;2023-07-08T03:53:08;101712.91;;;13.36;100.00
7052;BME280;3567;52.444;13.556;2023-07-08T03:55:34;101718.59;;;13.46;100.00
7052;BME280;3567;52.444;13.556;2023-07-08T03:57:59;101727.59;;;13.58;100.00
7052;BME280;3567;52.444;13.556;2023-07-08T04:00:24;101718.16;;;13.68;100.00
7052;BME280;3567;52.444;13.556;2023-07-08T04:02:50;101727.34;;;13.78;100.00
7052;BME280;3567;52.444;13.556;2023-07-08T04:05:18;101722.50;;;13.87;100.00
7052;BME280;3567;52.444;13.556;2023-07-08T04:07:44;101724.66;;;13.97;100.00
7052;BME280;3567;52.444;13.556;2023-07-08T04:10:11;101723.88;;;14.08;100.00
7052;BME280;3567;52.444;13.556;2023-07-08T04:12:37;101721.22;;;14.20;100.00
7052;BME280;3567;52.444;13.556;2023-07-08T04:15:04;101720.44;;;14.31;100.00
7052;BME280;3567;52.444;13.556;2023-07-08T04:17:29;101724.84;;;14.44;100.00
7052;BME280;3567;52.444;13.556;2023-07-08T04:19:55;101728.19;;;14.57;100.00
7052;BME280;3567;52.444;13.556;2023-07-08T04:22:22;101718.22;;;14.70;100.00
7052;BME280;3567;52.444;13.556;2023-07-08T04:24:47;101723.44;;;14.83;99.13
7052;BME280;3567;52.444;13.556;2023-07-08T04:27:15;101731.91;;;14.98;98.12
7052;BME280;3567;52.444;13.556;2023-07-08T04:29:41;101730.38;;;15.14;97.22
7052;BME280;3567;52.444;13.556;2023-07-08T04:32:07;101729.66;;;15.30;97.24
7052;BME280;3567;52.444;13.556;2023-07-08T04:34:32;101720.75;;;15.41;97.21
7052;BME280;3567;52.444;13.556;2023-07-08T04:36:57;101728.81;;;15.53;96.01
7052;BME280;3567;52.444;13.556;2023-07-08T04:39:23;101721.53;;;15.65;95.78
7052;BME280;3567;52.444;13.556;2023-07-08T04:41:48;101722.34;;;15.78;95.32
7052;BME280;3567;52.444;13.556;2023-07-08T04:44:14;101716.41;;;15.92;94.22
7052;BME280;3567;52.444;13.556;2023-07-08T04:46:48;101721.31;;;16.07;93.45
7052;BME280;3567;52.444;13.556;2023-07-08T04:49:16;101723.00;;;16.25;92.47
7052;BME280;3567;52.444;13.556;2023-07-08T04:51:42;101720.34;;;16.42;92.14
7052;BME280;3567;52.444;13.556;2023-07-08T04:54:07;101726.91;;;16.63;91.25
7052;BME280;3567;52.444;13.556;2023-07-08T04:56:39;101721.63;;;16.85;90.43
7052;BME280;3567;52.444;13.556;2023-07-08T04:59:06;101721.75;;;17.12;90.08
7052;BME280;3567;52.444;13.556;2023-07-08T05:01:32;101724.03;;;17.37;88.51
7052;BME280;3567;52.444;13.556;2023-07-08T05:03:59;101727.66;;;17.64;88.23
7052;BME280;3567;52.444;13.556;2023-07-08T05:06:24;101734.59;;;17.99;87.66
7052;BME280;3567;52.444;13.556;2023-07-08T05:08:50;101730.69;;;18.39;86.95
7052;BME280;3567;52.444;13.556;2023-07-08T05:11:15;101728.16;;;18.59;86.44
7052;BME280;3567;52.444;13.556;2023-07-08T05:13:40;101728.72;;;18.61;85.73
7052;BME280;3567;52.444;13.556;2023-07-08T05:16:06;101729.78;;;18.60;84.14
7052;BME280;3567;52.444;13.556;2023-07-08T05:18:31;101730.66;;;18.66;83.50
7052;BME280;3567;52.444;13.556;2023-07-08T05:20:56;101733.19;;;18.72;83.10
7052;BME280;3567;52.444;13.556;2023-07-08T05:23:25;101733.78;;;18.79;81.80
7052;BME280;3567;52.444;13.556;2023-07-08T05:25:50;101723.00;;;18.90;81.84
7052;BME280;3567;52.444;13.556;2023-07-08T05:28:16;101729.03;;;18.97;81.21
7052;BME280;3567;52.444;13.556;2023-07-08T05:30:41;101724.75;;;19.06;79.47
7052;BME280;3567;52.444;13.556;2023-07-08T05:33:08;101719.69;;;19.20;79.88
7052;BME280;3567;52.444;13.556;2023-07-08T05:35:33;101720.28;;;19.32;78.44
7052;BME280;3567;52.444;13.556;2023-07-08T05:37:59;101728.81;;;19.46;78.32
7052;BME280;3567;52.444;13.556;2023-07-08T05:40:24;101723.97;;;19.58;76.14
7052;BME280;3567;52.444;13.556;2023-07-08T05:42:50;101716.72;;;19.74;74.71
7052;BME280;3567;52.444;13.556;2023-07-08T05:45:15;101718.97;;;19.92;73.56
7052;BME280;3567;52.444;13.556;2023-07-08T05:47:41;101718.19;;;20.07;72.94
7052;BME280;3567;52.444;13.556;2023-07-08T05:50:07;101718.50;;;20.21;72.40
7052;BME280;3567;52.444;13.556;2023-07-08T05:52:32;101722.88;;;20.37;72.05
7052;BME280;3567;52.444;13.556;2023-07-08T05:54:57;101724.03;;;20.51;72.22
7052;BME280;3567;52.444;13.556;2023-07-08T05:57:23;101721.84;;;20.63;70.43
7052;BME280;3567;52.444;13.556;2023-07-08T05:59:49;101725.09;;;20.76;69.28
7052;BME280;3567;52.444;13.556;2023-07-08T06:02:16;101718.31;;;20.83;69.16
7052;BME280;3567;52.444;13.556;2023-07-08T06:04:42;101729.19;;;20.88;70.01
7052;BME280;3567;52.444;13.556;2023-07-08T06:07:07;101731.63;;;20.95;68.73
7052;BME280;3567;52.444;13.556;2023-07-08T06:09:32;101726.44;;;21.09;67.87
7052;BME280;3567;52.444;13.556;2023-07-08T06:11:58;101738.97;;;21.15;67.75
7052;BME280;3567;52.444;13.556;2023-07-08T06:14:24;101733.25;;;21.16;67.22
7052;BME280;3567;52.444;13.556;2023-07-08T06:16:49;101734.06;;;21.17;66.98
7052;BME280;3567;52.444;13.556;2023-07-08T06:19:15;101732.41;;;21.21;67.12
7052;BME280;3567;52.444;13.556;2023-07-08T06:21:42;101731.03;;;21.29;66.71
7052;BME280;3567;52.444;13.556;2023-07-08T06:24:08;101732.34;;;21.52;67.28
7052;BME280;3567;52.444;13.556;2023-07-08T06:26:33;101738.31;;;21.69;65.10
7052;BME280;3567;52.444;13.556;2023-07-08T06:28:59;101738.28;;;21.74;64.31
7052;BME280;3567;52.444;13.556;2023-07-08T06:31:24;101741.81;;;21.75;64.37
7052;BME280;3567;52.444;13.556;2023-07-08T06:33:50;101736.91;;;21.71;63.76
7052;BME280;3567;52.444;13.556;2023-07-08T06:36:15;101740.47;;;21.72;65.45
7052;BME280;3567;52.444;13.556;2023-07-08T06:38:41;101738.03;;;21.70;65.48
7052;BME280;3567;52.444;13.556;2023-07-08T06:41:06;101733.91;;;21.73;64.73
7052;BME280;3567;52.444;13.556;2023-07-08T06:43:32;101732.25;;;21.77;63.32
7052;BME280;3567;52.444;13.556;2023-07-08T06:45:57;101728.69;;;21.82;63.09
7052;BME280;3567;52.444;13.556;2023-07-08T06:48:23;101734.13;;;21.87;63.47
7052;BME280;3567;52.444;13.556;2023-07-08T06:50:49;101725.09;;;21.96;63.28
7052;BME280;3567;52.444;13.556;2023-07-08T06:53:15;101717.97;;;22.01;62.55
7052;BME280;3567;52.444;13.556;2023-07-08T06:55:41;101720.13;;;22.04;63.76
7052;BME280;3567;52.444;13.556;2023-07-08T06:58:08;101722.31;;;22.12;62.37
7052;BME280;3567;52.444;13.556;2023-07-08T07:00:34;101717.84;;;22.21;62.00
7052;BME280;3567;52.444;13.556;2023-07-08T07:02:59;101711.81;;;22.29;60.53
7052;BME280;3567;52.444;13.556;2023-07-08T07:05:24;101717.22;;;22.39;59.11
7052;BME280;3567;52.444;13.556;2023-07-08T07:07:50;101719.28;;;22.53;58.54
7052;BME280;3567;52.444;13.556;2023-07-08T07:10:17;101712.59;;;22.69;59.48
7052;BME280;3567;52.444;13.556;2023-07-08T07:12:43;101717.41;;;22.82;58.10
7052;BME280;3567;52.444;13.556;2023-07-08T07:15:08;101714.03;;;22.95;56.34
7052;BME280;3567;52.444;13.556;2023-07-08T07:17:34;101710.16;;;23.02;55.15
7052;BME280;3567;52.444;13.556;2023-07-08T07:20:01;101717.41;;;23.11;55.55
7052;BME280;3567;52.444;13.556;2023-07-08T07:22:27;101713.56;;;23.17;53.75
7052;BME280;3567;52.444;13.556;2023-07-08T07:24:52;101722.78;;;23.21;54.06
7052;BME280;3567;52.444;13.556;2023-07-08T07:27:18;101720.81;;;23.27;54.77
7052;BME280;3567;52.444;13.556;2023-07-08T07:29:45;101715.00;;;23.34;54.25
7052;BME280;3567;52.444;13.556;2023-07-08T07:32:12;101719.59;;;23.38;54.52
7052;BME280;3567;52.444;13.556;2023-07-08T07:34:38;101716.97;;;23.52;54.69
7052;BME280;3567;52.444;13.556;2023-07-08T07:37:14;101712.41;;;23.71;55.34
7052;BME280;3567;52.444;13.556;2023-07-08T07:39:40;101700.66;;;23.90;53.95
7052;BME280;3567;52.444;13.556;2023-07-08T07:42:10;101711.09;;;24.07;54.54
7052;BME280;3567;52.444;13.556;2023-07-08T07:44:35;101704.81;;;24.25;54.22
7052;BME280;3567;52.444;13.556;2023-07-08T07:47:02;101700.25;;;24.34;52.84
7052;BME280;3567;52.444;13.556;2023-07-08T07:49:28;101704.53;;;24.45;53.30
7052;BME280;3567;52.444;13.556;2023-07-08T07:51:53;101706.91;;;24.66;54.55
7052;BME280;3567;52.444;13.556;2023-07-08T07:54:19;101707.91;;;25.02;53.70
7052;BME280;3567;52.444;13.556;2023-07-08T07:56:44;101705.63;;;25.23;53.58
7052;BME280;3567;52.444;13.556;2023-07-08T07:59:10;101694.84;;;25.27;52.33
7052;BME280;3567;52.444;13.556;2023-07-08T08:01:36;101693.53;;;25.38;53.41
7052;BME280;3567;52.444;13.556;2023-07-08T08:04:02;101694.94;;;25.63;52.27
7052;BME280;3567;52.444;13.556;2023-07-08T08:06:27;101695.34;;;25.70;49.98
7052;BME280;3567;52.444;13.556;2023-07-08T08:08:52;101702.97;;;25.73;50.70
7052;BME280;3567;52.444;13.556;2023-07-08T08:11:18;101696.44;;;25.83;50.92
7052;BME280;3567;52.444;13.556;2023-07-08T08:13:43;101687.16;;;26.06;49.61
7052;BME280;3567;52.444;13.556;2023-07-08T08:16:09;101698.53;;;26.36;49.38
7052;BME280;3567;52.444;13.556;2023-07-08T08:18:34;101699.31;;;26.50;48.59
7052;BME280;3567;52.444;13.556;2023-07-08T08:21:00;101699.72;;;26.66;47.95
7052;BME280;3567;52.444;13.556;2023-07-08T08:23:25;101693.91;;;26.68;47.15
7052;BME280;3567;52.444;13.556;2023-07-08T08:25:51;101695.56;;;26.69;48.00
7052;BME280;3567;52.444;13.556;2023-07-08T08:28:16;101690.50;;;26.62;46.39
7052;BME280;3567;52.444;13.556;2023-07-08T08:30:46;101694.00;;;26.54;47.13
7052;BME280;3567;52.444;13.556;2023-07-08T08:33:12;101696.19;;;26.66;46.68
7052;BME280;3567;52.444;13.556;2023-07-08T08:35:37;101702.84;;;26.73;47.91
7052;BME280;3567;52.444;13.556;2023-07-08T08:38:03;101687.59;;;26.67;44.59
7052;BME280;3567;52.444;13.556;2023-07-08T08:40:30;101681.44;;;26.61;43.52
7052;BME280;3567;52.444;13.556;2023-07-08T08:43:02;101682.13;;;26.67;44.27
7052;BME280;3567;52.444;13.556;2023-07-08T08:45:35;101686.88;;;26.84;44.53
7052;BME280;3567;52.444;13.556;2023-07-08T08:48:06;101690.59;;;27.10;45.05
7052;BME280;3567;52.444;13.556;2023-07-08T08:50:49;101687.72;;;27.15;45.00
7052;BME280;3567;52.444;13.556;2023-07-08T08:53:17;101681.94;;;27.26;44.29
7052;BME280;3567;52.444;13.556;2023-07-08T08:55:43;101681.63;;;27.36;42.93
7052;BME280;3567;52.444;13.556;2023-07-08T09:01:12;101663.41;;;27.57;40.28
7052;BME280;3567;52.444;13.556;2023-07-08T09:03:49;101662.63;;;27.74;39.66
7052;BME280;3567;52.444;13.556;2023-07-08T09:06:20;101657.97;;;27.92;39.31
7052;BME280;3567;52.444;13.556;2023-07-08T09:08:47;101659.44;;;27.98;39.04
7052;BME280;3567;52.444;13.556;2023-07-08T09:11:25;101655.38;;;27.87;38.20
7052;BME280;3567;52.444;13.556;2023-07-08T09:13:52;101656.34;;;27.82;38.62
7052;BME280;3567;52.444;13.556;2023-07-08T09:16:55;101654.53;;;28.12;38.30
7052;BME280;3567;52.444;13.556;2023-07-08T09:19:24;101653.09;;;28.41;37.77
7052;BME280;3567;52.444;13.556;2023-07-08T09:22:13;101652.69;;;28.68;37.72
7052;BME280;3567;52.444;13.556;2023-07-08T09:24:51;101645.69;;;28.80;36.00
7052;BME280;3567;52.444;13.556;2023-07-08T09:27:19;101638.84;;;28.94;35.62
7052;BME280;3567;52.444;13.556;2023-07-08T09:29:45;101633.63;;;28.93;34.45
7052;BME280;3567;52.444;13.556;2023-07-08T09:32:22;101624.25;;;28.94;33.29
7052;BME280;3567;52.444;13.556;2023-07-08T09:34:56;101625.53;;;28.88;33.66
7052;BME280;3567;52.444;13.556;2023-07-08T09:37:37;101624.28;;;28.77;34.78
7052;BME280;3567;52.444;13.556;2023-07-08T09:40:28;101621.63;;;28.89;33.32
7052;BME280;3567;52.444;13.556;2023-07-08T09:43:20;101613.75;;;29.08;33.11
7052;BME280;3567;52.444;13.556;2023-07-08T09:45:48;101615.16;;;29.23;33.00
7052;BME280;3567;52.444;13.556;2023-07-08T09:48:23;101618.03;;;29.35;33.52
7052;BME280;3567;52.444;13.556;2023-07-08T09:50:52;101613.38;;;29.18;33.00
7052;BME280;3567;52.444;13.556;2023-07-08T09:53:18;101620.06;;;29.17;33.42
7052;BME280;3567;52.444;13.556;2023-07-08T09:55:45;101619.22;;;29.26;33.21
7052;BME280;3567;52.444;13.556;2023-07-08T09:58:29;101611.97;;;29.42;33.00
7052;BME280;3567;52.444;13.556;2023-07-08T10:00:57;101609.47;;;29.49;32.66
7052;BME280;3567;52.444;13.556;2023-07-08T10:03:28;101624.03;;;29.29;32.91
7052;BME280;3567;52.444;13.556;2023-07-08T10:05:57;101614.50;;;29.26;33.81
7052;BME280;3567;52.444;13.556;2023-07-08T10:08:39;101619.22;;;29.26;32.22
7052;BME280;3567;52.444;13.556;2023-07-08T10:13:46;101608.81;;;29.52;32.34
7052;BME280;3567;52.444;13.556;2023-07-08T10:18:47;101594.28;;;29.64;30.35
7052;BME280;3567;52.444;13.556;2023-07-08T10:21:45;101597.50;;;29.87;31.45
7052;BME280;3567;52.444;13.556;2023-07-08T10:24:31;101590.81;;;29.88;30.96
7052;BME280;3567;52.444;13.556;2023-07-08T10:30:22;101591.88;;;29.62;30.38
7052;BME280;3567;52.444;13.556;2023-07-08T10:35:45;101584.75;;;30.15;28.80
7052;BME280;3567;52.444;13.556;2023-07-08T10:40:49;101589.16;;;30.74;30.16
7052;BME280;3567;52.444;13.556;2023-07-08T11:05:59;101568.63;;;31.92;27.67
7052;BME280;3567;52.444;13.556;2023-07-08T11:08:29;101555.34;;;32.14;26.75
7052;BME280;3567;52.444;13.556;2023-07-08T11:11:19;101559.03;;;32.33;26.35
7052;BME280;3567;52.444;13.556;2023-07-08T11:13:54;101563.78;;;32.49;27.52
7052;BME280;3567;52.444;13.556;2023-07-08T11:16:31;101563.06;;;32.99;26.69
7052;BME280;3567;52.444;13.556;2023-07-08T11:19:04;101555.94;;;33.72;24.88
7052;BME280;3567;52.444;13.556;2023-07-08T11:21:48;101550.31;;;33.92;25.40
7052;BME280;3567;52.444;13.556;2023-07-08T11:27:05;101558.59;;;34.30;25.50
7052;BME280;3567;52.444;13.556;2023-07-08T11:29:42;101551.38;;;34.26;24.38
7052;BME280;3567;52.444;13.556;2023-07-08T11:32:14;101554.09;;;34.22;25.84
7052;BME280;3567;52.444;13.556;2023-07-08T11:34:43;101543.41;;;34.24;24.67
7052;BME280;3567;52.444;13.556;2023-07-08T11:37:10;101544.38;;;34.35;24.63
7052;BME280;3567;52.444;13.556;2023-07-08T11:39:45;101530.72;;;34.99;23.77
7052;BME280;3567;52.444;13.556;2023-07-08T11:44:50;101516.19;;;35.13;22.14
7052;BME280;3567;52.444;13.556;2023-07-08T11:47:38;101525.81;;;34.92;22.62
7052;BME280;3567;52.444;13.556;2023-07-08T11:50:24;101523.91;;;34.70;23.45
7052;BME280;3567;52.444;13.556;2023-07-08T11:53:02;101525.88;;;34.70;23.66
7052;BME280;3567;52.444;13.556;2023-07-08T11:55:57;101513.63;;;34.74;22.30
7052;BME280;3567;52.444;13.556;2023-07-08T11:58:29;101504.59;;;34.81;22.08
7052;BME280;3567;52.444;13.556;2023-07-08T12:01:04;101518.09;;;35.39;23.15
7052;BME280;3567;52.444;13.556;2023-07-08T12:03:47;101501.53;;;35.87;21.66
7052;BME280;3567;52.444;13.556;2023-07-08T12:08:57;101496.16;;;36.53;20.89
7052;BME280;3567;52.444;13.556;2023-07-08T12:11:32;101495.03;;;36.64;20.13
7052;BME280;3567;52.444;13.556;2023-07-08T12:14:03;101493.28;;;36.42;20.61
7052;BME280;3567;52.444;13.556;2023-07-08T12:16:30;101501.16;;;36.29;21.75
7052;BME280;3567;52.444;13.556;2023-07-08T12:18:57;101494.38;;;35.86;21.53
7052;BME280;3567;52.444;13.556;2023-07-08T12:21:26;101492.75;;;35.48;21.86
7052;BME280;3567;52.444;13.556;2023-07-08T12:23:53;101488.59;;;35.34;21.52
7052;BME280;3567;52.444;13.556;2023-07-08T12:26:18;101493.13;;;35.46;22.38
7052;BME280;3567;52.444;13.556;2023-07-08T12:28:44;101480.44;;;35.49;21.37
7052;BME280;3567;52.444;13.556;2023-07-08T12:31:20;101493.56;;;35.85;22.03
7052;BME280;3567;52.444;13.556;2023-07-08T12:33:46;101488.06;;;35.92;21.59
7052;BME280;3567;52.444;13.556;2023-07-08T12:36:20;101485.88;;;36.16;21.28
7052;BME280;3567;52.444;13.556;2023-07-08T12:38:47;101487.47;;;36.65;21.32
7052;BME280;3567;52.444;13.556;2023-07-08T12:41:22;101485.88;;;36.67;21.62
7052;BME280;3567;52.444;13.556;2023-07-08T12:43:49;101477.50;;;36.60;21.67
7052;BME280;3567;52.444;13.556;2023-07-08T12:46:17;101484.25;;;36.63;21.27
7052;BME280;3567;52.444;13.556;2023-07-08T12:48:43;101491.53;;;36.78;21.24
7052;BME280;3567;52.444;13.556;2023-07-08T12:51:17;101466.88;;;36.91;20.63
7052;BME280;3567;52.444;13.556;2023-07-08T12:53:43;101467.81;;;37.13;21.80
7052;BME280;3567;52.444;13.556;2023-07-08T12:56:10;101464.13;;;36.94;20.76
7052;BME280;3567;52.444;13.556;2023-07-08T12:58:43;101472.16;;;36.41;22.16
7052;BME280;3567;52.444;13.556;2023-07-08T13:01:15;101467.94;;;36.13;21.49
7052;BME280;3567;52.444;13.556;2023-07-08T13:03:44;101466.63;;;35.97;22.40
7052;BME280;3567;52.444;13.556;2023-07-08T13:06:15;101467.38;;;35.93;21.35
7052;BME280;3567;52.444;13.556;2023-07-08T13:08:42;101465.25;;;35.83;21.89
7052;BME280;3567;52.444;13.556;2023-07-08T13:11:08;101472.94;;;35.93;23.13
7052;BME280;3567;52.444;13.556;2023-07-08T13:13:38;101468.63;;;36.00;21.41
7052;BME280;3567;52.444;13.556;2023-07-08T13:16:04;101461.22;;;35.77;22.16
7052;BME280;3567;52.444;13.556;2023-07-08T13:18:39;101464.88;;;35.85;21.96
7052;BME280;3567;52.444;13.556;2023-07-08T13:21:06;101456.06;;;35.79;21.81
7052;BME280;3567;52.444;13.556;2023-07-08T13:23:33;101462.38;;;35.73;22.25
7052;BME280;3567;52.444;13.556;2023-07-08T13:26:00;101463.84;;;36.00;22.82
7052;BME280;3567;52.444;13.556;2023-07-08T13:28:28;101456.97;;;35.90;21.71
7052;BME280;3567;52.444;13.556;2023-07-08T13:30:55;101452.56;;;35.86;20.71
7052;BME280;3567;52.444;13.556;2023-07-08T13:33:21;101451.13;;;36.03;21.38
7052;BME280;3567;52.444;13.556;2023-07-08T13:35:47;101462.78;;;36.15;20.74
7052;BME280;3567;52.444;13.556;2023-07-08T13:38:19;101461.22;;;36.18;21.85
7052;BME280;3567;52.444;13.556;2023-07-08T13:40:49;101466.91;;;36.36;21.68
7052;BME280;3567;52.444;13.556;2023-07-08T13:43:15;101459.53;;;36.06;20.79
7052;BME280;3567;52.444;13.556;2023-07-08T13:45:45;101459.06;;;35.97;22.29
7052;BME280;3567;52.444;13.556;2023-07-08T13:48:31;101464.22;;;35.99;23.17
7052;BME280;3567;52.444;13.556;2023-07-08T13:56:15;101467.06;;;36.06;22.40
7052;BME280;3567;52.444;13.556;2023-07-08T13:58:50;101459.50;;;36.03;22.54
7052;BME280;3567;52.444;13.556;2023-07-08T14:01:24;101458.09;;;35.82;22.71
7052;BME280;3567;52.444;13.556;2023-07-08T14:03:53;101455.38;;;35.52;22.24